createdAt,value
2022-09-23T00:00:45.997Z,19.15
2022-09-23T00:01:50.197Z,19.40
2022-09-23T00:02:52.455Z,19.30
2022-09-23T00:03:56.540Z,19.40
2022-09-23T00:05:00.014Z,19.13
2022-09-23T00:06:05.523Z,19.90
2022-09-23T00:07:09.815Z,19.52
2022-09-23T00:08:14.595Z,20.77
2022-09-23T00:09:17.572Z,20.45
2022-09-23T00:10:19.741Z,19.88
2022-09-23T00:11:27.606Z,20.25
2022-09-23T00:12:29.656Z,19.98
2022-09-23T00:13:31.778Z,19.50
2022-09-23T00:14:33.852Z,18.60
2022-09-23T00:15:39.731Z,19.77
2022-09-23T00:16:42.567Z,19.00
2022-09-23T00:17:45.555Z,19.85
2022-09-23T00:18:50.658Z,19.58
2022-09-23T00:19:54.351Z,20.27
2022-09-23T00:20:56.394Z,19.42
2022-09-23T00:22:01.201Z,20.90
2022-09-23T00:23:08.071Z,19.67
2022-09-23T00:24:11.070Z,20.35
2022-09-23T00:25:13.216Z,19.70
2022-09-23T00:26:21.009Z,19.75
2022-09-23T00:27:23.223Z,19.55
2022-09-23T00:28:25.776Z,19.25
2022-09-23T00:29:28.845Z,19.40
2022-09-23T00:30:32.662Z,20.77
2022-09-23T00:31:37.331Z,20.02
2022-09-23T00:32:40.369Z,20.90
2022-09-23T00:33:43.899Z,21.48
2022-09-23T00:34:45.940Z,22.48
2022-09-23T00:35:52.036Z,22.88
2022-09-23T00:36:54.050Z,22.25
2022-09-23T00:37:56.314Z,22.63
2022-09-23T00:38:59.654Z,22.00
2022-09-23T00:40:04.962Z,21.17
2022-09-23T00:41:08.096Z,23.20
2022-09-23T00:42:18.919Z,23.30
2022-09-23T00:43:20.927Z,22.73
2022-09-23T00:44:43.445Z,23.70
2022-09-23T00:45:52.087Z,24.17
2022-09-23T00:46:54.561Z,20.02
2022-09-23T00:48:06.609Z,21.40
2022-09-23T00:49:29.609Z,22.25
2022-09-23T00:50:36.981Z,22.08
2022-09-23T00:51:48.925Z,21.90
2022-09-23T00:52:54.711Z,21.13
2022-09-23T00:53:58.075Z,21.42
2022-09-23T00:55:08.805Z,20.27
2022-09-23T00:56:12.138Z,20.92
2022-09-23T00:57:17.745Z,20.77
2022-09-23T00:58:27.811Z,21.38
2022-09-23T00:59:30.283Z,22.58
2022-09-23T01:00:34.045Z,22.77
2022-09-23T01:01:43.447Z,23.33
2022-09-23T01:02:49.328Z,23.63
2022-09-23T01:03:54.685Z,24.70
2022-09-23T01:04:56.764Z,23.85
2022-09-23T01:06:03.948Z,23.73
2022-09-23T01:07:08.681Z,23.55
2022-09-23T01:08:13.052Z,22.17
2022-09-23T01:09:16.543Z,21.75
2022-09-23T01:10:20.962Z,21.23
2022-09-23T01:11:50.942Z,20.65
2022-09-23T01:13:13.559Z,20.67
2022-09-23T01:14:34.757Z,19.98
2022-09-23T01:16:14.597Z,20.27
2022-09-23T01:17:42.019Z,19.98
2022-09-23T01:19:20.173Z,19.63
2022-09-23T01:20:59.600Z,17.70
2022-09-23T01:22:22.109Z,18.42
2022-09-23T01:23:45.602Z,16.30
2022-09-23T01:24:53.197Z,18.27
2022-09-23T01:26:16.912Z,17.52
2022-09-23T01:28:02.738Z,16.48
2022-09-23T01:29:28.743Z,16.48
2022-09-23T01:31:01.878Z,16.38
2022-09-23T01:32:47.313Z,15.48
2022-09-23T01:33:59.203Z,16.38
2022-09-23T01:35:04.272Z,15.65
2022-09-23T01:36:25.885Z,21.00
2022-09-23T01:37:28.820Z,20.35
2022-09-23T01:38:36.587Z,15.93
2022-09-23T01:40:04.437Z,14.75
2022-09-23T01:41:16.562Z,15.80
2022-09-23T01:42:31.426Z,15.05
2022-09-23T01:43:52.396Z,15.52
2022-09-23T01:45:09.204Z,15.32
2022-09-23T01:46:26.264Z,15.35
2022-09-23T01:47:35.128Z,16.05
2022-09-23T01:48:43.655Z,16.25
2022-09-23T01:49:54.481Z,15.45
2022-09-23T01:51:09.451Z,16.02
2022-09-23T01:52:41.233Z,15.40
2022-09-23T01:54:24.577Z,15.68
2022-09-23T01:55:35.625Z,15.43
2022-09-23T01:57:07.361Z,15.75
2022-09-23T01:58:26.003Z,15.02
2022-09-23T01:59:35.707Z,15.82
2022-09-23T02:00:43.960Z,15.73
2022-09-23T02:02:16.267Z,16.75
2022-09-23T02:03:26.335Z,16.63
2022-09-23T02:04:39.942Z,17.17
2022-09-23T02:05:51.144Z,16.63
2022-09-23T02:06:59.932Z,16.30
2022-09-23T02:08:14.855Z,16.27
2022-09-23T02:09:27.078Z,16.63
2022-09-23T02:10:56.846Z,14.93
2022-09-23T02:12:06.361Z,15.48
2022-09-23T02:13:32.765Z,16.83
2022-09-23T02:15:01.303Z,15.50
2022-09-23T02:16:20.036Z,15.70
2022-09-23T02:17:37.287Z,15.80
2022-09-23T02:19:11.777Z,16.02
2022-09-23T02:20:24.460Z,16.13
2022-09-23T02:21:35.163Z,17.55
2022-09-23T02:22:43.614Z,17.20
2022-09-23T02:23:52.398Z,16.80
2022-09-23T02:24:57.601Z,16.85
2022-09-23T02:26:20.303Z,16.60
2022-09-23T02:27:51.758Z,17.40
2022-09-23T02:29:19.455Z,17.02
2022-09-23T02:30:28.379Z,15.85
2022-09-23T02:31:34.317Z,16.65
2022-09-23T02:32:49.152Z,15.60
2022-09-23T02:34:09.654Z,15.52
2022-09-23T02:35:26.933Z,15.60
2022-09-23T02:36:40.095Z,15.50
2022-09-23T02:38:14.753Z,16.40
2022-09-23T02:39:20.917Z,15.65
2022-09-23T02:40:26.097Z,15.95
2022-09-23T02:41:34.273Z,16.92
2022-09-23T02:43:03.027Z,16.13
2022-09-23T02:44:07.913Z,16.17
2022-09-23T02:45:10.541Z,14.98
2022-09-23T02:46:13.649Z,15.38
2022-09-23T02:47:20.823Z,16.02
2022-09-23T02:48:34.784Z,15.80
2022-09-23T02:49:37.014Z,14.48
2022-09-23T02:50:41.528Z,15.27
2022-09-23T02:52:55.164Z,14.95
2022-09-23T02:53:39.864Z,14.25
2022-09-23T02:54:43.747Z,14.32
2022-09-23T02:55:46.323Z,14.98
2022-09-23T02:56:50.923Z,15.40
2022-09-23T02:57:53.635Z,15.45
2022-09-23T02:58:56.025Z,15.43
2022-09-23T02:59:58.665Z,14.20
2022-09-23T03:01:08.395Z,15.23
2022-09-23T03:02:36.348Z,14.30
2022-09-23T03:03:49.899Z,13.82
2022-09-23T03:05:30.588Z,13.13
2022-09-23T03:06:44.659Z,12.25
2022-09-23T03:07:58.919Z,13.15
2022-09-23T03:09:19.118Z,12.32
2022-09-23T03:10:44.020Z,12.93
2022-09-23T03:11:53.431Z,12.20
2022-09-23T03:13:05.835Z,11.38
2022-09-23T03:14:24.297Z,12.43
2022-09-23T03:15:52.009Z,11.63
2022-09-23T03:17:07.107Z,11.88
2022-09-23T03:18:45.932Z,10.80
2022-09-23T03:20:01.969Z,10.93
2022-09-23T03:21:14.829Z,11.75
2022-09-23T03:22:28.279Z,11.57
2022-09-23T03:23:38.386Z,10.90
2022-09-23T03:24:45.503Z,11.82
2022-09-23T03:25:52.540Z,11.10
2022-09-23T03:26:56.274Z,11.18
2022-09-23T03:28:01.440Z,11.32
2022-09-23T03:29:09.521Z,10.80
2022-09-23T03:30:13.319Z,11.13
2022-09-23T03:31:16.557Z,11.68
2022-09-23T03:32:23.664Z,11.75
2022-09-23T03:33:46.725Z,10.85
2022-09-23T03:35:01.298Z,10.68
2022-09-23T03:36:28.139Z,11.00
2022-09-23T03:37:33.394Z,10.95
2022-09-23T03:38:40.341Z,10.60
2022-09-23T03:39:48.065Z,10.70
2022-09-23T03:40:54.383Z,11.35
2022-09-23T03:42:01.897Z,11.38
2022-09-23T03:43:05.286Z,11.05
2022-09-23T03:44:09.907Z,10.70
2022-09-23T03:45:18.599Z,11.15
2022-09-23T03:46:20.731Z,10.70
2022-09-23T03:47:25.342Z,11.23
2022-09-23T03:48:27.584Z,9.80
2022-09-23T03:49:35.374Z,10.90
2022-09-23T03:50:39.943Z,11.02
2022-09-23T03:51:44.705Z,10.88
2022-09-23T03:52:49.058Z,10.73
2022-09-23T03:53:52.872Z,10.40
2022-09-23T03:54:54.995Z,10.68
2022-09-23T03:55:57.422Z,11.63
2022-09-23T03:57:00.945Z,11.02
2022-09-23T03:58:03.488Z,10.30
2022-09-23T03:59:05.868Z,10.85
2022-09-23T04:00:08.466Z,10.30
2022-09-23T04:01:14.919Z,10.35
2022-09-23T04:02:17.923Z,11.15
2022-09-23T04:03:19.913Z,10.20
2022-09-23T04:04:22.432Z,10.18
2022-09-23T04:05:24.477Z,10.23
2022-09-23T04:06:26.462Z,10.88
2022-09-23T04:07:28.428Z,10.82
2022-09-23T04:08:31.490Z,10.30
2022-09-23T04:09:34.955Z,10.70
2022-09-23T04:10:41.286Z,11.07
2022-09-23T04:11:43.427Z,10.45
2022-09-23T04:12:46.503Z,10.30
2022-09-23T04:13:50.675Z,10.38
2022-09-23T04:14:52.777Z,10.40
2022-09-23T04:15:54.865Z,10.60
2022-09-23T04:16:57.665Z,10.07
2022-09-23T04:18:03.269Z,10.35
2022-09-23T04:19:05.337Z,10.90
2022-09-23T04:20:09.124Z,9.65
2022-09-23T04:21:11.565Z,10.15
2022-09-23T04:22:14.188Z,10.43
2022-09-23T04:23:16.562Z,10.70
2022-09-23T04:24:18.803Z,10.60
2022-09-23T04:25:21.397Z,10.05
2022-09-23T04:26:26.054Z,10.00
2022-09-23T04:27:28.101Z,10.63
2022-09-23T04:28:30.133Z,9.93
2022-09-23T04:29:32.237Z,10.10
2022-09-23T04:30:34.314Z,10.68
2022-09-23T04:31:36.906Z,10.52
2022-09-23T04:32:39.463Z,10.52
2022-09-23T04:33:41.501Z,10.05
2022-09-23T04:34:44.165Z,10.25
2022-09-23T04:35:52.972Z,9.65
2022-09-23T04:37:57.406Z,10.10
2022-09-23T04:38:59.702Z,9.93
2022-09-23T04:40:03.419Z,9.23
2022-09-23T04:41:09.802Z,10.20
2022-09-23T04:42:12.312Z,9.95
2022-09-23T04:43:16.454Z,9.60
2022-09-23T04:44:19.092Z,9.88
2022-09-23T04:45:21.171Z,10.13
2022-09-23T04:46:23.746Z,10.32
2022-09-23T04:47:26.239Z,9.57
2022-09-23T04:48:29.587Z,10.18
2022-09-23T04:49:32.699Z,9.52
2022-09-23T04:50:34.632Z,10.00
2022-09-23T04:51:36.618Z,9.15
2022-09-23T04:52:38.587Z,9.60
2022-09-23T04:53:42.899Z,9.77
2022-09-23T04:54:44.895Z,8.52
2022-09-23T04:55:47.515Z,8.73
2022-09-23T04:56:49.632Z,8.32
2022-09-23T04:57:52.014Z,8.75
2022-09-23T04:58:54.489Z,7.70
2022-09-23T04:59:59.582Z,8.63
2022-09-23T05:01:15.187Z,8.57
2022-09-23T05:02:19.900Z,8.38
2022-09-23T05:03:24.931Z,8.95
2022-09-23T05:04:27.511Z,8.30
2022-09-23T05:05:31.108Z,8.55
2022-09-23T05:06:35.597Z,8.68
2022-09-23T05:07:37.701Z,9.52
2022-09-23T05:08:40.679Z,9.30
2022-09-23T05:09:42.641Z,10.50
2022-09-23T05:10:44.607Z,10.88
2022-09-23T05:11:46.827Z,10.95
2022-09-23T05:12:52.448Z,10.75
2022-09-23T05:13:58.487Z,10.65
2022-09-23T05:15:00.812Z,9.95
2022-09-23T05:16:06.308Z,9.25
2022-09-23T05:17:08.859Z,9.68
2022-09-23T05:18:10.856Z,9.05
2022-09-23T05:19:13.777Z,8.80
2022-09-23T05:20:18.579Z,8.27
2022-09-23T05:21:24.049Z,8.45
2022-09-23T05:22:26.952Z,8.60
2022-09-23T05:23:32.120Z,8.80
2022-09-23T05:24:34.190Z,8.15
2022-09-23T05:25:38.341Z,8.20
2022-09-23T05:26:40.853Z,8.38
2022-09-23T05:27:43.910Z,9.30
2022-09-23T05:28:46.906Z,9.68
2022-09-23T05:29:50.055Z,8.85
2022-09-23T05:30:52.259Z,8.57
2022-09-23T05:31:54.406Z,7.68
2022-09-23T05:33:04.520Z,8.95
2022-09-23T05:34:07.040Z,8.18
2022-09-23T05:35:09.202Z,8.10
2022-09-23T05:36:12.216Z,8.80
2022-09-23T05:37:14.377Z,7.70
2022-09-23T05:38:16.914Z,7.82
2022-09-23T05:39:19.324Z,8.38
2022-09-23T05:40:23.781Z,8.25
2022-09-23T05:41:26.958Z,7.72
2022-09-23T05:42:29.298Z,7.85
2022-09-23T05:43:33.660Z,8.55
2022-09-23T05:44:35.925Z,8.35
2022-09-23T05:45:37.898Z,8.88
2022-09-23T05:46:41.381Z,8.23
2022-09-23T05:47:44.154Z,7.75
2022-09-23T05:48:48.751Z,8.88
2022-09-23T05:49:59.707Z,8.65
2022-09-23T05:51:03.624Z,8.32
2022-09-23T05:52:05.623Z,8.88
2022-09-23T05:53:07.843Z,8.38
2022-09-23T05:54:10.082Z,9.02
2022-09-23T05:55:14.528Z,8.40
2022-09-23T05:56:19.654Z,8.73
2022-09-23T05:57:22.074Z,8.48
2022-09-23T05:58:24.811Z,8.43
2022-09-23T05:59:29.835Z,9.38
2022-09-23T06:00:31.988Z,8.57
2022-09-23T06:01:36.846Z,8.35
2022-09-23T06:02:39.143Z,7.95
2022-09-23T06:03:41.579Z,8.32
2022-09-23T06:04:44.012Z,8.77
2022-09-23T06:05:47.080Z,8.40
2022-09-23T06:06:51.162Z,8.23
2022-09-23T06:07:53.524Z,8.50
2022-09-23T06:08:55.616Z,7.90
2022-09-23T06:09:57.903Z,8.10
2022-09-23T06:11:07.306Z,8.63
2022-09-23T06:12:09.654Z,8.18
2022-09-23T06:13:13.189Z,8.10
2022-09-23T06:14:17.615Z,8.88
2022-09-23T06:15:19.813Z,8.32
2022-09-23T06:16:21.901Z,8.18
2022-09-23T06:17:24.262Z,8.15
2022-09-23T06:18:26.555Z,7.63
2022-09-23T06:19:53.623Z,7.25
2022-09-23T06:20:55.617Z,7.57
2022-09-23T06:21:58.206Z,8.30
2022-09-23T06:23:10.531Z,7.75
2022-09-23T06:24:17.820Z,7.75
2022-09-23T06:25:23.310Z,7.28
2022-09-23T06:26:25.589Z,7.55
2022-09-23T06:27:30.437Z,7.70
2022-09-23T06:28:34.342Z,8.20
2022-09-23T06:29:36.452Z,7.95
2022-09-23T06:30:40.063Z,8.02
2022-09-23T06:31:43.929Z,7.72
2022-09-23T06:32:52.277Z,8.20
2022-09-23T06:34:04.996Z,7.20
2022-09-23T06:35:24.812Z,7.80
2022-09-23T06:36:40.577Z,7.50
2022-09-23T06:37:45.259Z,8.73
2022-09-23T06:38:49.549Z,7.95
2022-09-23T06:39:52.154Z,7.15
2022-09-23T06:40:56.089Z,8.40
2022-09-23T06:41:58.089Z,9.65
2022-09-23T06:43:03.169Z,8.52
2022-09-23T06:44:06.286Z,8.32
2022-09-23T06:45:13.463Z,9.70
2022-09-23T06:46:17.562Z,8.68
2022-09-23T06:47:19.977Z,7.75
2022-09-23T06:48:24.266Z,7.95
2022-09-23T06:49:27.527Z,8.05
2022-09-23T06:50:29.801Z,8.38
2022-09-23T06:51:32.304Z,8.23
2022-09-23T06:52:36.847Z,7.88
2022-09-23T06:53:39.548Z,7.55
2022-09-23T06:54:41.541Z,8.30
2022-09-23T06:55:44.213Z,7.70
2022-09-23T06:56:48.687Z,7.38
2022-09-23T06:57:51.217Z,7.60
2022-09-23T06:58:53.629Z,7.88
2022-09-23T06:59:56.052Z,8.20
2022-09-23T07:01:07.331Z,7.30
2022-09-23T07:02:09.852Z,7.28
2022-09-23T07:03:12.351Z,7.38
2022-09-23T07:04:14.826Z,7.10
2022-09-23T07:05:17.444Z,7.13
2022-09-23T07:06:19.578Z,7.38
2022-09-23T07:07:21.601Z,6.70
2022-09-23T07:08:25.142Z,7.43
2022-09-23T07:09:28.404Z,7.05
2022-09-23T07:10:32.461Z,7.55
2022-09-23T07:11:35.325Z,7.47
2022-09-23T07:12:43.982Z,7.00
2022-09-23T07:13:56.759Z,7.32
2022-09-23T07:14:59.535Z,7.78
2022-09-23T07:16:04.667Z,7.47
2022-09-23T07:17:08.049Z,7.68
2022-09-23T07:18:10.384Z,7.78
2022-09-23T07:19:12.961Z,7.53
2022-09-23T07:21:40.980Z,6.97
2022-09-23T07:24:01.027Z,7.22
2022-09-23T07:25:07.745Z,7.15
2022-09-23T07:26:13.749Z,6.97
2022-09-23T07:27:23.065Z,6.80
2022-09-23T07:28:30.578Z,6.80
2022-09-23T07:29:46.524Z,7.20
2022-09-23T07:31:00.119Z,7.93
2022-09-23T07:32:13.778Z,7.65
2022-09-23T07:33:31.029Z,7.13
2022-09-23T07:34:34.954Z,8.07
2022-09-23T07:35:41.338Z,6.50
2022-09-23T07:36:44.801Z,6.95
2022-09-23T07:37:48.391Z,6.53
2022-09-23T07:38:51.691Z,7.25
2022-09-23T07:39:56.282Z,6.93
2022-09-23T07:41:08.571Z,6.93
2022-09-23T07:42:17.155Z,6.32
2022-09-23T07:43:22.663Z,6.57
2022-09-23T07:44:26.396Z,6.40
2022-09-23T07:45:30.000Z,6.25
2022-09-23T07:47:55.661Z,6.13
2022-09-23T07:50:08.415Z,6.20
2022-09-23T07:51:33.381Z,6.20
2022-09-23T07:53:59.074Z,6.22
2022-09-23T07:55:20.248Z,6.57
2022-09-23T07:56:28.887Z,6.22
2022-09-23T07:57:36.640Z,6.63
2022-09-23T07:58:42.303Z,6.70
2022-09-23T07:59:45.648Z,6.88
2022-09-23T08:02:09.600Z,6.25
2022-09-23T08:03:12.361Z,6.35
2022-09-23T08:05:51.744Z,6.20
2022-09-23T08:07:00.993Z,6.50
2022-09-23T08:08:08.068Z,7.72
2022-09-23T08:09:15.060Z,7.28
2022-09-23T08:10:21.520Z,7.20
2022-09-23T08:11:25.683Z,7.57
2022-09-23T08:12:37.101Z,8.35
2022-09-23T08:13:46.867Z,8.07
2022-09-23T08:14:51.035Z,8.23
2022-09-23T08:15:55.674Z,7.88
2022-09-23T08:17:01.243Z,7.93
2022-09-23T08:18:03.860Z,7.60
2022-09-23T08:19:08.447Z,8.25
2022-09-23T08:20:32.922Z,8.02
2022-09-23T08:21:41.906Z,7.85
2022-09-23T08:22:44.707Z,7.75
2022-09-23T08:25:04.741Z,8.48
2022-09-23T08:26:18.051Z,9.10
2022-09-23T08:27:23.725Z,9.02
2022-09-23T08:28:26.597Z,9.05
2022-09-23T08:29:30.328Z,8.43
2022-09-23T08:30:34.382Z,8.90
2022-09-23T08:31:39.025Z,9.13
2022-09-23T08:32:44.787Z,9.10
2022-09-23T08:33:53.258Z,9.40
2022-09-23T08:34:57.596Z,9.57
2022-09-23T08:36:04.123Z,9.70
2022-09-23T08:37:18.093Z,9.27
2022-09-23T08:38:22.203Z,9.00
2022-09-23T08:39:27.152Z,9.50
2022-09-23T08:40:35.256Z,9.55
2022-09-23T08:42:08.365Z,9.20
2022-09-23T08:43:37.850Z,8.77
2022-09-23T08:44:51.110Z,8.98
2022-09-23T08:45:58.579Z,9.23
2022-09-23T08:47:20.976Z,8.95
2022-09-23T08:54:32.098Z,8.05
2022-09-23T08:55:46.842Z,7.60
2022-09-23T08:58:25.277Z,7.82
2022-09-23T08:59:50.935Z,6.68
2022-09-23T09:04:23.619Z,6.10
2022-09-23T09:05:38.279Z,6.03
2022-09-23T09:06:53.629Z,6.10
2022-09-23T09:08:03.513Z,6.75
2022-09-23T09:09:25.080Z,6.53
2022-09-23T09:10:43.429Z,6.20
2022-09-23T09:11:52.280Z,5.78
2022-09-23T09:13:07.860Z,5.65
2022-09-23T09:14:29.153Z,5.53
2022-09-23T09:15:38.031Z,5.63
2022-09-23T09:17:11.479Z,5.47
2022-09-23T09:18:22.626Z,5.18
2022-09-23T09:19:56.937Z,5.50
2022-09-23T09:21:15.841Z,5.85
2022-09-23T09:22:45.899Z,5.72
2022-09-23T09:24:03.565Z,6.00
2022-09-23T09:25:35.803Z,6.10
2022-09-23T09:26:42.650Z,5.43
2022-09-23T09:27:56.749Z,5.38
2022-09-23T09:30:48.643Z,6.82
2022-09-23T09:31:55.513Z,6.15
2022-09-23T09:33:27.644Z,5.60
2022-09-23T09:34:45.633Z,6.20
2022-09-23T09:36:09.741Z,6.40
2022-09-23T09:37:41.662Z,6.40
2022-09-23T09:38:48.720Z,6.10
2022-09-23T09:39:51.449Z,6.65
2022-09-23T09:40:56.959Z,6.25
2022-09-23T09:42:03.020Z,6.43
2022-09-23T09:43:07.915Z,6.22
2022-09-23T09:44:27.619Z,6.57
2022-09-23T09:45:58.045Z,5.80
2022-09-23T09:47:22.156Z,4.97
2022-09-23T09:48:55.092Z,5.10
2022-09-23T09:50:21.179Z,4.97
2022-09-23T09:51:25.973Z,5.10
2022-09-23T09:52:30.408Z,4.97
2022-09-23T09:54:53.483Z,5.03
2022-09-23T09:56:09.790Z,4.50
2022-09-23T09:57:33.687Z,4.70
2022-09-23T09:58:51.622Z,5.10
2022-09-23T09:59:54.729Z,5.32
2022-09-23T10:01:00.675Z,5.80
2022-09-23T10:02:31.291Z,4.90
2022-09-23T10:03:46.381Z,4.82
2022-09-23T10:05:01.506Z,4.60
2022-09-23T10:06:15.393Z,4.63
2022-09-23T10:07:26.999Z,5.00
2022-09-23T10:08:37.044Z,5.10
2022-09-23T10:11:19.770Z,4.63
2022-09-23T10:12:24.176Z,4.50
2022-09-23T10:13:29.955Z,4.70
2022-09-23T10:14:36.184Z,4.45
2022-09-23T10:15:45.558Z,5.00
2022-09-23T10:17:06.075Z,4.82
2022-09-23T10:18:30.705Z,4.25
2022-09-23T10:19:39.892Z,4.38
2022-09-23T10:20:43.673Z,4.28
2022-09-23T10:21:57.110Z,4.50
2022-09-23T10:23:07.379Z,4.13
2022-09-23T10:24:22.948Z,3.97
2022-09-23T10:25:26.880Z,4.80
2022-09-23T10:26:34.239Z,4.10
2022-09-23T10:27:37.782Z,4.68
2022-09-23T10:29:01.683Z,5.07
2022-09-23T10:30:07.788Z,4.60
2022-09-23T10:31:14.575Z,5.10
2022-09-23T10:32:31.276Z,4.93
2022-09-23T10:35:14.188Z,5.78
2022-09-23T10:36:19.325Z,5.88
2022-09-23T10:37:39.308Z,6.25
2022-09-23T10:38:42.363Z,6.25
2022-09-23T10:40:03.272Z,5.95
2022-09-23T10:41:36.973Z,5.70
2022-09-23T10:45:22.609Z,6.03
2022-09-23T10:46:39.245Z,5.82
2022-09-23T10:48:01.148Z,7.03
2022-09-23T10:49:26.675Z,6.78
2022-09-23T10:50:50.049Z,6.88
2022-09-23T10:52:15.995Z,7.03
2022-09-23T10:53:30.262Z,7.25
2022-09-23T10:54:46.062Z,7.13
2022-09-23T10:56:09.816Z,7.25
2022-09-23T10:57:47.168Z,7.03
2022-09-23T10:59:15.479Z,7.88
2022-09-23T11:00:58.987Z,6.88
2022-09-23T11:04:18.291Z,7.07
2022-09-23T11:05:58.344Z,7.10
2022-09-23T11:08:37.616Z,7.15
2022-09-23T11:09:53.809Z,7.15
2022-09-23T11:12:51.419Z,6.78
2022-09-23T11:14:01.922Z,6.43
2022-09-23T11:17:10.844Z,6.93
2022-09-23T11:19:02.689Z,6.72
2022-09-23T11:20:42.349Z,6.88
2022-09-23T11:22:24.155Z,7.05
2022-09-23T11:24:09.523Z,6.80
2022-09-23T11:25:37.346Z,6.85
2022-09-23T11:26:58.006Z,6.55
2022-09-23T11:28:31.899Z,6.15
2022-09-23T11:31:44.189Z,5.90
2022-09-23T11:33:17.989Z,5.40
2022-09-23T11:35:05.500Z,5.95
2022-09-23T11:36:25.756Z,5.97
2022-09-23T11:37:43.455Z,5.65
2022-09-23T11:38:51.398Z,5.82
2022-09-23T11:40:04.481Z,5.88
2022-09-23T11:41:24.699Z,6.18
2022-09-23T11:42:41.410Z,5.90
2022-09-23T11:44:05.010Z,5.28
2022-09-23T11:48:46.744Z,5.68
2022-09-23T11:55:22.213Z,6.35
2022-09-23T11:58:01.878Z,5.68
2022-09-23T11:59:07.767Z,5.20
2022-09-23T12:00:24.945Z,5.78
2022-09-23T12:01:45.888Z,5.35
2022-09-23T12:03:42.368Z,5.45
2022-09-23T12:05:09.769Z,5.40
2022-09-23T12:08:07.822Z,5.47
2022-09-23T12:09:40.914Z,5.90
2022-09-23T12:10:57.870Z,5.53
2022-09-23T12:12:13.988Z,5.82
2022-09-23T12:13:28.543Z,5.18
2022-09-23T12:16:30.066Z,5.68
2022-09-23T12:18:04.806Z,5.35
2022-09-23T12:19:51.189Z,5.47
2022-09-23T12:21:48.824Z,5.60
2022-09-23T12:24:26.879Z,5.70
2022-09-23T12:25:46.895Z,5.38
2022-09-23T12:26:58.618Z,6.65
2022-09-23T12:28:33.889Z,6.05
2022-09-23T12:29:39.166Z,5.80
2022-09-23T12:30:44.484Z,5.65
2022-09-23T12:32:00.146Z,5.70
2022-09-23T12:33:27.362Z,6.30
2022-09-23T12:34:48.397Z,6.00
2022-09-23T12:35:56.588Z,6.07
2022-09-23T12:37:07.107Z,6.15
2022-09-23T12:39:47.765Z,6.15
2022-09-23T12:40:53.926Z,6.28
2022-09-23T12:42:04.902Z,6.00
2022-09-23T12:43:32.764Z,5.72
2022-09-23T12:44:48.485Z,5.90
2022-09-23T12:45:52.049Z,5.90
2022-09-23T12:47:31.718Z,6.47
2022-09-23T12:49:01.386Z,6.18
2022-09-23T12:54:15.050Z,6.40
2022-09-23T12:55:22.418Z,6.10
2022-09-23T12:56:28.755Z,6.32
2022-09-23T12:57:41.523Z,5.95
2022-09-23T12:58:44.706Z,6.07
2022-09-23T12:59:56.596Z,5.55
2022-09-23T13:01:19.508Z,5.68
2022-09-23T13:04:27.900Z,6.90
2022-09-23T13:05:50.174Z,6.00
2022-09-23T13:07:09.929Z,6.40
2022-09-23T13:09:42.771Z,6.10
2022-09-23T13:12:32.179Z,6.40
2022-09-23T13:13:49.130Z,6.28
2022-09-23T13:14:58.579Z,7.07
2022-09-23T13:16:27.121Z,6.60
2022-09-23T13:17:33.886Z,6.30
2022-09-23T13:19:31.681Z,6.72
2022-09-23T13:20:38.744Z,6.60
2022-09-23T13:21:47.767Z,6.40
2022-09-23T13:25:47.330Z,6.75
2022-09-23T13:26:55.226Z,7.10
2022-09-23T13:28:06.926Z,6.93
2022-09-23T13:30:37.933Z,5.95
2022-09-23T13:33:16.147Z,6.50
2022-09-23T13:34:24.281Z,6.70
2022-09-23T13:36:51.418Z,6.50
2022-09-23T13:37:58.369Z,7.00
2022-09-23T13:43:43.034Z,7.38
2022-09-23T13:44:46.715Z,7.57
2022-09-23T13:45:50.827Z,8.10
2022-09-23T13:49:42.386Z,7.75
2022-09-23T13:50:55.912Z,7.93
2022-09-23T13:52:00.833Z,7.97
2022-09-23T13:54:50.905Z,8.63
2022-09-23T13:58:54.825Z,8.35
2022-09-23T14:01:44.671Z,8.68
2022-09-23T14:02:53.565Z,8.68
2022-09-23T14:03:58.149Z,7.90
2022-09-23T14:06:44.651Z,8.15
2022-09-23T14:07:54.185Z,8.00
2022-09-23T14:13:03.372Z,8.57
2022-09-23T14:14:12.681Z,7.30
2022-09-23T14:20:28.802Z,7.00
2022-09-23T14:21:45.505Z,7.18
2022-09-23T14:28:04.093Z,7.25
2022-09-23T14:29:17.750Z,7.60
2022-09-23T14:34:51.408Z,7.65
2022-09-23T14:44:40.133Z,7.95
2022-09-23T14:47:36.506Z,7.38
2022-09-23T14:53:49.455Z,8.68
2022-09-23T14:56:26.391Z,7.20
2022-09-23T14:57:44.409Z,7.35
2022-09-23T15:03:26.653Z,7.60
2022-09-23T15:06:04.099Z,8.73
2022-09-23T15:10:13.349Z,7.50
2022-09-23T15:14:37.937Z,8.63
2022-09-23T15:19:19.183Z,8.30
2022-09-23T15:20:38.448Z,8.40
2022-09-23T15:21:53.607Z,7.65
2022-09-23T15:27:05.304Z,8.05
2022-09-23T15:29:40.855Z,8.38
2022-09-23T15:57:03.157Z,8.25
2022-09-23T16:23:23.534Z,8.60
2022-09-23T16:32:48.851Z,11.02
2022-09-23T16:35:31.345Z,8.55
2022-09-23T16:38:13.997Z,8.13
2022-09-23T16:43:28.402Z,7.68
2022-09-23T16:49:18.065Z,7.93
2022-09-23T16:54:25.958Z,7.60
2022-09-23T16:55:29.955Z,8.27
2022-09-23T17:01:42.069Z,7.75
2022-09-23T17:10:06.439Z,9.18
2022-09-23T17:11:32.182Z,8.07
2022-09-23T17:12:41.809Z,8.27
2022-09-23T17:20:32.184Z,8.82
2022-09-23T17:41:21.696Z,7.85
2022-09-23T17:47:04.317Z,8.02
2022-09-23T18:08:11.913Z,10.00
2022-09-23T18:09:17.956Z,8.65
2022-09-23T18:13:56.723Z,8.60
2022-09-23T18:39:24.932Z,7.70
2022-09-23T18:47:44.614Z,7.13
2022-09-23T18:57:39.388Z,7.43
2022-09-23T18:59:00.230Z,7.57
2022-09-23T19:12:23.421Z,8.57
2022-09-23T19:20:02.986Z,7.28
2022-09-23T19:22:56.395Z,7.97
2022-09-23T19:24:20.101Z,6.97
2022-09-23T19:27:27.863Z,7.40
2022-09-23T19:34:59.053Z,9.65
2022-09-23T19:36:22.213Z,7.55
2022-09-23T19:40:21.348Z,8.27
2022-09-23T20:20:09.406Z,8.85
2022-09-23T20:50:02.248Z,9.48
2022-09-23T20:52:20.644Z,9.48
2022-09-23T21:15:38.326Z,9.70
2022-09-23T21:21:40.893Z,9.68
2022-09-23T21:22:54.101Z,9.32
2022-09-23T21:24:17.319Z,10.00
2022-09-23T21:33:43.283Z,9.48
2022-09-23T21:36:16.268Z,9.95
2022-09-23T21:38:50.700Z,10.13
2022-09-23T21:49:50.978Z,12.82
2022-09-23T21:52:25.051Z,10.02
2022-09-23T22:00:25.762Z,11.15
2022-09-23T22:01:42.028Z,11.35
2022-09-23T22:02:52.748Z,10.57
2022-09-23T22:06:10.195Z,11.25
2022-09-23T22:09:11.413Z,10.32
2022-09-23T22:12:08.782Z,10.77
2022-09-23T22:15:48.993Z,11.27
2022-09-23T22:20:14.178Z,11.00
2022-09-23T22:21:34.610Z,11.27
2022-09-23T22:25:47.900Z,10.63
2022-09-23T22:28:39.941Z,10.63
2022-09-23T22:33:26.983Z,10.32
2022-09-23T22:40:25.476Z,10.45
2022-09-23T22:41:32.668Z,10.18
2022-09-23T22:44:13.425Z,10.20
2022-09-23T22:48:13.243Z,9.70
2022-09-23T22:52:44.935Z,10.02
2022-09-23T23:03:51.575Z,9.10
2022-09-23T23:07:41.831Z,8.73
2022-09-23T23:10:42.973Z,8.90
2022-09-23T23:14:27.418Z,8.70
2022-09-23T23:15:56.126Z,8.88
2022-09-23T23:18:19.248Z,8.75
2022-09-23T23:22:02.186Z,8.43
2022-09-23T23:23:08.033Z,7.90
2022-09-23T23:24:30.026Z,8.48
2022-09-23T23:25:32.657Z,8.52
2022-09-23T23:26:40.942Z,8.52
2022-09-23T23:27:52.592Z,8.43
2022-09-23T23:30:24.253Z,8.60
2022-09-23T23:31:37.934Z,8.75
2022-09-23T23:32:50.547Z,8.38
2022-09-23T23:33:53.976Z,8.45
2022-09-23T23:34:59.733Z,8.50
2022-09-23T23:36:04.372Z,8.13
2022-09-23T23:38:30.756Z,7.93
2022-09-23T23:39:38.836Z,8.25
2022-09-23T23:40:45.267Z,8.07
2022-09-23T23:41:49.433Z,8.45
2022-09-23T23:44:15.149Z,7.63
2022-09-23T23:45:25.726Z,7.18
2022-09-23T23:47:50.848Z,7.53
2022-09-23T23:50:27.340Z,7.68
2022-09-23T23:52:55.335Z,8.43
2022-09-23T23:54:05.388Z,8.00
2022-09-23T23:55:11.616Z,8.20
2022-09-23T23:56:30.599Z,8.27
